sensor_id;sensor_type;location;lat;lon;timestamp;P1;durP1;ratioP1;P2;durP2;ratioP2
40945;SDS011;55635;50.264;11.918;2022-11-11T00:01:37;55.10;;;13.00;;
40945;SDS011;55635;50.264;11.918;2022-11-11T00:04:38;68.80;;;14.35;;
40945;SDS011;55635;50.264;11.918;2022-11-11T00:07:39;35.65;;;11.57;;
40945;SDS011;55635;50.264;11.918;2022-11-11T00:10:40;32.92;;;10.63;;
40945;SDS011;55635;50.264;11.918;2022-11-11T00:13:41;37.55;;;10.77;;
40945;SDS011;55635;50.264;11.918;2022-11-11T00:16:42;29.77;;;10.25;;
40945;SDS011;55635;50.264;11.918;2022-11-11T00:20:02;19.92;;;10.73;;
40945;SDS011;55635;50.264;11.918;2022-11-11T00:23:24;30.67;;;11.63;;
40945;SDS011;55635;50.264;11.918;2022-11-11T00:26:44;96.10;;;15.07;;
40945;SDS011;55635;50.264;11.918;2022-11-11T00:29:44;258.42;;;20.15;;
40945;SDS011;55635;50.264;11.918;2022-11-11T00:32:46;435.25;;;31.67;;
40945;SDS011;55635;50.264;11.918;2022-11-11T00:35:46;97.72;;;8.93;;
40945;SDS011;55635;50.264;11.918;2022-11-11T00:38:52;241.57;;;18.02;;
40945;SDS011;55635;50.264;11.918;2022-11-11T00:41:53;85.35;;;11.80;;
40945;SDS011;55635;50.264;11.918;2022-11-11T00:44:53;20.30;;;8.20;;
40945;SDS011;55635;50.264;11.918;2022-11-11T00:47:54;14.85;;;6.97;;
40945;SDS011;55635;50.264;11.918;2022-11-11T00:51:13;17.75;;;8.70;;
40945;SDS011;55635;50.264;11.918;2022-11-11T00:54:13;10.15;;;6.60;;
40945;SDS011;55635;50.264;11.918;2022-11-11T00:57:14;105.72;;;11.40;;
40945;SDS011;55635;50.264;11.918;2022-11-11T01:00:14;57.90;;;9.50;;
40945;SDS011;55635;50.264;11.918;2022-11-11T01:03:15;17.40;;;7.15;;
40945;SDS011;55635;50.264;11.918;2022-11-11T01:06:15;11.77;;;6.35;;
40945;SDS011;55635;50.264;11.918;2022-11-11T01:09:15;16.85;;;7.50;;
40945;SDS011;55635;50.264;11.918;2022-11-11T01:12:16;9.90;;;6.22;;
40945;SDS011;55635;50.264;11.918;2022-11-11T01:15:17;14.82;;;7.45;;
40945;SDS011;55635;50.264;11.918;2022-11-11T01:18:19;13.32;;;6.63;;
40945;SDS011;55635;50.264;11.918;2022-11-11T01:21:22;13.80;;;6.80;;
40945;SDS011;55635;50.264;11.918;2022-11-11T01:24:24;11.82;;;6.90;;
40945;SDS011;55635;50.264;11.918;2022-11-11T01:27:24;14.63;;;6.68;;
40945;SDS011;55635;50.264;11.918;2022-11-11T01:30:25;20.77;;;7.07;;
40945;SDS011;55635;50.264;11.918;2022-11-11T01:33:25;18.08;;;7.10;;
40945;SDS011;55635;50.264;11.918;2022-11-11T01:36:26;8.38;;;5.80;;
40945;SDS011;55635;50.264;11.918;2022-11-11T01:39:26;16.75;;;6.47;;
40945;SDS011;55635;50.264;11.918;2022-11-11T01:42:27;20.58;;;6.38;;
40945;SDS011;55635;50.264;11.918;2022-11-11T01:48:50;25.48;;;6.85;;
40945;SDS011;55635;50.264;11.918;2022-11-11T01:55:28;18.55;;;7.53;;
40945;SDS011;55635;50.264;11.918;2022-11-11T01:58:30;13.63;;;7.25;;
40945;SDS011;55635;50.264;11.918;2022-11-11T02:01:31;19.02;;;7.75;;
40945;SDS011;55635;50.264;11.918;2022-11-11T02:04:32;11.85;;;6.03;;
40945;SDS011;55635;50.264;11.918;2022-11-11T02:07:54;11.48;;;6.35;;
40945;SDS011;55635;50.264;11.918;2022-11-11T02:11:02;13.32;;;7.82;;
40945;SDS011;55635;50.264;11.918;2022-11-11T02:14:11;12.75;;;6.50;;
40945;SDS011;55635;50.264;11.918;2022-11-11T02:17:31;18.27;;;7.32;;
40945;SDS011;55635;50.264;11.918;2022-11-11T02:20:36;15.23;;;7.20;;
40945;SDS011;55635;50.264;11.918;2022-11-11T02:23:44;13.35;;;6.13;;
40945;SDS011;55635;50.264;11.918;2022-11-11T02:27:16;13.85;;;5.65;;
40945;SDS011;55635;50.264;11.918;2022-11-11T02:30:19;12.38;;;5.60;;
40945;SDS011;55635;50.264;11.918;2022-11-11T02:33:19;17.35;;;6.90;;
40945;SDS011;55635;50.264;11.918;2022-11-11T02:36:20;17.00;;;6.10;;
40945;SDS011;55635;50.264;11.918;2022-11-11T02:39:20;18.67;;;6.20;;
40945;SDS011;55635;50.264;11.918;2022-11-11T02:42:24;11.90;;;5.90;;
40945;SDS011;55635;50.264;11.918;2022-11-11T02:45:24;118.45;;;9.38;;
40945;SDS011;55635;50.264;11.918;2022-11-11T02:48:24;34.67;;;7.05;;
40945;SDS011;55635;50.264;11.918;2022-11-11T02:51:26;65.18;;;8.90;;
40945;SDS011;55635;50.264;11.918;2022-11-11T02:54:26;38.35;;;7.55;;
40945;SDS011;55635;50.264;11.918;2022-11-11T02:57:27;20.13;;;5.75;;
40945;SDS011;55635;50.264;11.918;2022-11-11T03:00:27;14.82;;;7.28;;
40945;SDS011;55635;50.264;11.918;2022-11-11T03:03:27;16.13;;;7.72;;
40945;SDS011;55635;50.264;11.918;2022-11-11T03:06:28;15.73;;;7.40;;
40945;SDS011;55635;50.264;11.918;2022-11-11T03:09:29;17.60;;;7.35;;
40945;SDS011;55635;50.264;11.918;2022-11-11T03:12:30;17.77;;;6.85;;
40945;SDS011;55635;50.264;11.918;2022-11-11T03:15:31;18.02;;;7.30;;
40945;SDS011;55635;50.264;11.918;2022-11-11T03:18:31;14.95;;;6.43;;
40945;SDS011;55635;50.264;11.918;2022-11-11T03:21:35;15.25;;;6.30;;
40945;SDS011;55635;50.264;11.918;2022-11-11T03:24:39;12.65;;;6.82;;
40945;SDS011;55635;50.264;11.918;2022-11-11T03:27:59;10.45;;;6.78;;
40945;SDS011;55635;50.264;11.918;2022-11-11T03:31:09;13.55;;;6.25;;
40945;SDS011;55635;50.264;11.918;2022-11-11T03:34:09;10.48;;;6.07;;
40945;SDS011;55635;50.264;11.918;2022-11-11T03:37:17;13.10;;;6.72;;
40945;SDS011;55635;50.264;11.918;2022-11-11T03:40:46;14.43;;;6.15;;
40945;SDS011;55635;50.264;11.918;2022-11-11T03:43:50;14.57;;;6.38;;
40945;SDS011;55635;50.264;11.918;2022-11-11T03:46:50;13.85;;;6.63;;
40945;SDS011;55635;50.264;11.918;2022-11-11T03:49:55;9.80;;;5.63;;
40945;SDS011;55635;50.264;11.918;2022-11-11T03:52:56;12.98;;;5.72;;
40945;SDS011;55635;50.264;11.918;2022-11-11T03:55:57;19.70;;;6.82;;
40945;SDS011;55635;50.264;11.918;2022-11-11T03:58:58;10.73;;;5.95;;
40945;SDS011;55635;50.264;11.918;2022-11-11T04:02:10;11.30;;;5.82;;
40945;SDS011;55635;50.264;11.918;2022-11-11T04:05:30;14.73;;;5.63;;
40945;SDS011;55635;50.264;11.918;2022-11-11T04:08:56;13.48;;;5.57;;
40945;SDS011;55635;50.264;11.918;2022-11-11T04:12:19;11.95;;;4.90;;
40945;SDS011;55635;50.264;11.918;2022-11-11T04:15:21;10.13;;;5.53;;
40945;SDS011;55635;50.264;11.918;2022-11-11T04:18:42;13.23;;;5.85;;
40945;SDS011;55635;50.264;11.918;2022-11-11T04:22:06;9.18;;;4.75;;
40945;SDS011;55635;50.264;11.918;2022-11-11T04:25:07;7.47;;;4.75;;
40945;SDS011;55635;50.264;11.918;2022-11-11T04:28:26;11.48;;;5.13;;
40945;SDS011;55635;50.264;11.918;2022-11-11T04:31:46;8.10;;;4.90;;
40945;SDS011;55635;50.264;11.918;2022-11-11T04:35:06;5.78;;;4.75;;
40945;SDS011;55635;50.264;11.918;2022-11-11T04:38:16;8.25;;;5.13;;
40945;SDS011;55635;50.264;11.918;2022-11-11T04:44:36;10.60;;;5.55;;
40945;SDS011;55635;50.264;11.918;2022-11-11T04:47:56;8.10;;;4.60;;
40945;SDS011;55635;50.264;11.918;2022-11-11T04:51:11;8.43;;;5.13;;
40945;SDS011;55635;50.264;11.918;2022-11-11T04:54:14;9.65;;;5.53;;
40945;SDS011;55635;50.264;11.918;2022-11-11T04:57:14;9.10;;;5.50;;
40945;SDS011;55635;50.264;11.918;2022-11-11T05:00:17;10.77;;;5.70;;
40945;SDS011;55635;50.264;11.918;2022-11-11T05:03:18;9.60;;;5.68;;
40945;SDS011;55635;50.264;11.918;2022-11-11T05:06:22;11.82;;;6.57;;
40945;SDS011;55635;50.264;11.918;2022-11-11T05:09:42;12.57;;;6.22;;
40945;SDS011;55635;50.264;11.918;2022-11-11T05:12:45;11.52;;;5.70;;
40945;SDS011;55635;50.264;11.918;2022-11-11T05:15:49;16.70;;;6.97;;
40945;SDS011;55635;50.264;11.918;2022-11-11T05:19:09;13.07;;;7.38;;
40945;SDS011;55635;50.264;11.918;2022-11-11T05:22:30;15.32;;;7.40;;
40945;SDS011;55635;50.264;11.918;2022-11-11T05:25:36;12.82;;;7.68;;
40945;SDS011;55635;50.264;11.918;2022-11-11T05:28:40;17.35;;;9.07;;
40945;SDS011;55635;50.264;11.918;2022-11-11T05:31:45;18.05;;;9.10;;
40945;SDS011;55635;50.264;11.918;2022-11-11T05:34:46;22.65;;;9.05;;
40945;SDS011;55635;50.264;11.918;2022-11-11T05:37:46;18.95;;;8.82;;
40945;SDS011;55635;50.264;11.918;2022-11-11T05:41:06;12.02;;;8.35;;
40945;SDS011;55635;50.264;11.918;2022-11-11T05:44:07;14.75;;;8.68;;
40945;SDS011;55635;50.264;11.918;2022-11-11T05:47:07;14.55;;;7.72;;
40945;SDS011;55635;50.264;11.918;2022-11-11T05:53:08;13.85;;;6.90;;
40945;SDS011;55635;50.264;11.918;2022-11-11T05:56:08;13.65;;;6.88;;
40945;SDS011;55635;50.264;11.918;2022-11-11T05:59:12;11.05;;;6.95;;
40945;SDS011;55635;50.264;11.918;2022-11-11T06:02:18;15.10;;;6.57;;
40945;SDS011;55635;50.264;11.918;2022-11-11T06:05:19;13.98;;;6.55;;
40945;SDS011;55635;50.264;11.918;2022-11-11T06:08:19;14.77;;;6.93;;
40945;SDS011;55635;50.264;11.918;2022-11-11T06:11:20;12.23;;;5.78;;
40945;SDS011;55635;50.264;11.918;2022-11-11T06:14:20;10.68;;;5.97;;
40945;SDS011;55635;50.264;11.918;2022-11-11T06:17:20;11.88;;;6.72;;
40945;SDS011;55635;50.264;11.918;2022-11-11T06:20:24;17.45;;;7.85;;
40945;SDS011;55635;50.264;11.918;2022-11-11T06:23:27;20.10;;;11.48;;
40945;SDS011;55635;50.264;11.918;2022-11-11T06:26:29;16.40;;;8.57;;
40945;SDS011;55635;50.264;11.918;2022-11-11T06:29:30;17.48;;;7.30;;
40945;SDS011;55635;50.264;11.918;2022-11-11T06:32:36;10.73;;;7.28;;
40945;SDS011;55635;50.264;11.918;2022-11-11T06:35:36;12.52;;;7.13;;
40945;SDS011;55635;50.264;11.918;2022-11-11T06:38:38;14.40;;;8.07;;
40945;SDS011;55635;50.264;11.918;2022-11-11T06:41:39;18.25;;;7.85;;
40945;SDS011;55635;50.264;11.918;2022-11-11T06:44:39;23.70;;;9.63;;
40945;SDS011;55635;50.264;11.918;2022-11-11T06:47:39;16.30;;;8.32;;
40945;SDS011;55635;50.264;11.918;2022-11-11T06:50:40;15.98;;;8.65;;
40945;SDS011;55635;50.264;11.918;2022-11-11T06:53:41;14.55;;;7.43;;
40945;SDS011;55635;50.264;11.918;2022-11-11T06:56:41;18.63;;;8.85;;
40945;SDS011;55635;50.264;11.918;2022-11-11T06:59:40;12.57;;;7.82;;
40945;SDS011;55635;50.264;11.918;2022-11-11T07:05:41;10.35;;;7.15;;
40945;SDS011;55635;50.264;11.918;2022-11-11T07:08:41;11.95;;;6.90;;
40945;SDS011;55635;50.264;11.918;2022-11-11T07:11:42;12.23;;;6.65;;
40945;SDS011;55635;50.264;11.918;2022-11-11T07:14:41;13.95;;;7.15;;
40945;SDS011;55635;50.264;11.918;2022-11-11T07:17:41;14.35;;;6.43;;
40945;SDS011;55635;50.264;11.918;2022-11-11T07:20:41;15.85;;;8.07;;
40945;SDS011;55635;50.264;11.918;2022-11-11T07:23:41;16.60;;;7.93;;
40945;SDS011;55635;50.264;11.918;2022-11-11T07:26:40;14.98;;;7.00;;
40945;SDS011;55635;50.264;11.918;2022-11-11T07:29:42;10.32;;;6.93;;
40945;SDS011;55635;50.264;11.918;2022-11-11T07:32:45;10.90;;;6.78;;
40945;SDS011;55635;50.264;11.918;2022-11-11T07:35:46;15.05;;;7.13;;
40945;SDS011;55635;50.264;11.918;2022-11-11T07:38:46;11.15;;;6.88;;
40945;SDS011;55635;50.264;11.918;2022-11-11T07:41:45;10.20;;;5.80;;
40945;SDS011;55635;50.264;11.918;2022-11-11T07:44:45;9.02;;;5.65;;
40945;SDS011;55635;50.264;11.918;2022-11-11T07:47:44;8.68;;;5.45;;
40945;SDS011;55635;50.264;11.918;2022-11-11T07:50:44;10.77;;;5.35;;
40945;SDS011;55635;50.264;11.918;2022-11-11T07:53:43;8.73;;;6.20;;
40945;SDS011;55635;50.264;11.918;2022-11-11T07:56:42;10.43;;;5.47;;
40945;SDS011;55635;50.264;11.918;2022-11-11T07:59:42;9.82;;;5.65;;
40945;SDS011;55635;50.264;11.918;2022-11-11T08:02:46;9.07;;;5.28;;
40945;SDS011;55635;50.264;11.918;2022-11-11T08:05:48;7.97;;;5.07;;
40945;SDS011;55635;50.264;11.918;2022-11-11T08:08:47;13.10;;;5.35;;
40945;SDS011;55635;50.264;11.918;2022-11-11T08:11:47;10.88;;;5.90;;
40945;SDS011;55635;50.264;11.918;2022-11-11T08:15:06;10.95;;;5.30;;
40945;SDS011;55635;50.264;11.918;2022-11-11T08:18:06;8.05;;;5.45;;
40945;SDS011;55635;50.264;11.918;2022-11-11T08:21:07;11.20;;;5.75;;
40945;SDS011;55635;50.264;11.918;2022-11-11T08:24:06;10.32;;;5.15;;
40945;SDS011;55635;50.264;11.918;2022-11-11T08:27:07;6.50;;;5.00;;
40945;SDS011;55635;50.264;11.918;2022-11-11T08:30:07;11.18;;;5.05;;
40945;SDS011;55635;50.264;11.918;2022-11-11T08:33:08;10.32;;;5.93;;
40945;SDS011;55635;50.264;11.918;2022-11-11T08:36:08;9.55;;;5.22;;
40945;SDS011;55635;50.264;11.918;2022-11-11T08:39:09;15.38;;;5.80;;
40945;SDS011;55635;50.264;11.918;2022-11-11T08:42:09;7.63;;;5.63;;
40945;SDS011;55635;50.264;11.918;2022-11-11T08:48:08;8.00;;;4.88;;
40945;SDS011;55635;50.264;11.918;2022-11-11T08:54:07;10.55;;;6.00;;
40945;SDS011;55635;50.264;11.918;2022-11-11T09:00:07;9.95;;;5.03;;
40945;SDS011;55635;50.264;11.918;2022-11-11T09:03:09;8.73;;;4.68;;
40945;SDS011;55635;50.264;11.918;2022-11-11T09:06:12;10.30;;;5.63;;
40945;SDS011;55635;50.264;11.918;2022-11-11T09:09:12;9.38;;;4.93;;
40945;SDS011;55635;50.264;11.918;2022-11-11T09:12:11;6.57;;;4.95;;
40945;SDS011;55635;50.264;11.918;2022-11-11T09:15:11;12.98;;;5.22;;
40945;SDS011;55635;50.264;11.918;2022-11-11T09:18:11;10.90;;;5.63;;
40945;SDS011;55635;50.264;11.918;2022-11-11T09:21:10;8.80;;;4.60;;
40945;SDS011;55635;50.264;11.918;2022-11-11T09:24:10;8.15;;;4.47;;
40945;SDS011;55635;50.264;11.918;2022-11-11T09:27:10;6.45;;;4.55;;
40945;SDS011;55635;50.264;11.918;2022-11-11T09:30:10;8.85;;;5.18;;
40945;SDS011;55635;50.264;11.918;2022-11-11T09:33:10;9.40;;;4.18;;
40945;SDS011;55635;50.264;11.918;2022-11-11T09:36:10;6.43;;;3.83;;
40945;SDS011;55635;50.264;11.918;2022-11-11T09:39:09;6.55;;;4.70;;
40945;SDS011;55635;50.264;11.918;2022-11-11T09:55:48;7.03;;;4.40;;
40945;SDS011;55635;50.264;11.918;2022-11-11T09:59:01;5.63;;;3.85;;
40945;SDS011;55635;50.264;11.918;2022-11-11T10:02:25;5.40;;;3.40;;
40945;SDS011;55635;50.264;11.918;2022-11-11T10:06:14;5.03;;;3.85;;
40945;SDS011;55635;50.264;11.918;2022-11-11T10:09:27;7.45;;;4.00;;
40945;SDS011;55635;50.264;11.918;2022-11-11T10:12:38;3.58;;;3.05;;
40945;SDS011;55635;50.264;11.918;2022-11-11T10:22:20;8.63;;;3.33;;
40945;SDS011;55635;50.264;11.918;2022-11-11T10:25:32;4.97;;;3.20;;
40945;SDS011;55635;50.264;11.918;2022-11-11T10:28:34;4.93;;;3.03;;
40945;SDS011;55635;50.264;11.918;2022-11-11T10:31:35;6.80;;;2.90;;
40945;SDS011;55635;50.264;11.918;2022-11-11T10:34:35;7.20;;;2.95;;
40945;SDS011;55635;50.264;11.918;2022-11-11T10:37:37;6.30;;;3.03;;
40945;SDS011;55635;50.264;11.918;2022-11-11T10:40:48;5.22;;;3.00;;
40945;SDS011;55635;50.264;11.918;2022-11-11T10:43:57;3.65;;;2.97;;
40945;SDS011;55635;50.264;11.918;2022-11-11T11:00:45;6.60;;;2.85;;
40945;SDS011;55635;50.264;11.918;2022-11-11T11:03:51;8.95;;;2.72;;
40945;SDS011;55635;50.264;11.918;2022-11-11T11:06:59;5.00;;;2.42;;
40945;SDS011;55635;50.264;11.918;2022-11-11T11:10:07;3.30;;;2.30;;
40945;SDS011;55635;50.264;11.918;2022-11-11T11:13:20;6.43;;;2.70;;
40945;SDS011;55635;50.264;11.918;2022-11-11T11:16:41;4.68;;;2.55;;
40945;SDS011;55635;50.264;11.918;2022-11-11T11:20:05;5.13;;;2.28;;
40945;SDS011;55635;50.264;11.918;2022-11-11T11:26:44;4.25;;;2.78;;
40945;SDS011;55635;50.264;11.918;2022-11-11T11:29:46;7.40;;;2.60;;
40945;SDS011;55635;50.264;11.918;2022-11-11T11:32:59;7.13;;;2.83;;
40945;SDS011;55635;50.264;11.918;2022-11-11T11:36:03;3.05;;;2.30;;
40945;SDS011;55635;50.264;11.918;2022-11-11T11:39:22;6.30;;;2.20;;
40945;SDS011;55635;50.264;11.918;2022-11-11T11:42:35;3.35;;;2.00;;
40945;SDS011;55635;50.264;11.918;2022-11-11T11:45:37;5.82;;;2.30;;
40945;SDS011;55635;50.264;11.918;2022-11-11T11:48:57;3.58;;;1.88;;
40945;SDS011;55635;50.264;11.918;2022-11-11T12:06:49;3.63;;;2.33;;
40945;SDS011;55635;50.264;11.918;2022-11-11T12:11:19;3.85;;;2.67;;
40945;SDS011;55635;50.264;11.918;2022-11-11T12:20:50;4.68;;;1.90;;
40945;SDS011;55635;50.264;11.918;2022-11-11T12:23:57;5.95;;;2.92;;
40945;SDS011;55635;50.264;11.918;2022-11-11T12:27:07;4.82;;;2.85;;
40945;SDS011;55635;50.264;11.918;2022-11-11T12:30:23;2.88;;;2.35;;
40945;SDS011;55635;50.264;11.918;2022-11-11T12:33:33;3.85;;;2.83;;
40945;SDS011;55635;50.264;11.918;2022-11-11T12:44:06;4.75;;;2.90;;
40945;SDS011;55635;50.264;11.918;2022-11-11T12:57:29;5.38;;;3.08;;
40945;SDS011;55635;50.264;11.918;2022-11-11T13:00:55;5.55;;;3.10;;
40945;SDS011;55635;50.264;11.918;2022-11-11T13:14:55;5.60;;;2.70;;
40945;SDS011;55635;50.264;11.918;2022-11-11T13:18:04;3.47;;;3.17;;
40945;SDS011;55635;50.264;11.918;2022-11-11T13:24:54;7.15;;;3.45;;
40945;SDS011;55635;50.264;11.918;2022-11-11T13:34:17;6.72;;;4.00;;
40945;SDS011;55635;50.264;11.918;2022-11-11T13:37:20;5.82;;;3.75;;
40945;SDS011;55635;50.264;11.918;2022-11-11T13:40:40;8.98;;;4.10;;
40945;SDS011;55635;50.264;11.918;2022-11-11T13:43:46;7.25;;;3.60;;
40945;SDS011;55635;50.264;11.918;2022-11-11T13:46:50;5.28;;;3.40;;
40945;SDS011;55635;50.264;11.918;2022-11-11T13:49:54;5.43;;;3.50;;
40945;SDS011;55635;50.264;11.918;2022-11-11T13:53:04;6.70;;;3.92;;
40945;SDS011;55635;50.264;11.918;2022-11-11T13:56:11;9.20;;;3.95;;
40945;SDS011;55635;50.264;11.918;2022-11-11T13:59:41;6.97;;;4.53;;
40945;SDS011;55635;50.264;11.918;2022-11-11T14:03:34;4.70;;;4.30;;
40945;SDS011;55635;50.264;11.918;2022-11-11T14:19:35;6.13;;;5.22;;
40945;SDS011;55635;50.264;11.918;2022-11-11T14:25:34;8.13;;;5.07;;
40945;SDS011;55635;50.264;11.918;2022-11-11T14:31:54;8.50;;;5.53;;
40945;SDS011;55635;50.264;11.918;2022-11-11T14:35:31;11.20;;;5.57;;
40945;SDS011;55635;50.264;11.918;2022-11-11T14:52:02;5.78;;;5.15;;
40945;SDS011;55635;50.264;11.918;2022-11-11T14:55:12;7.88;;;5.05;;
40945;SDS011;55635;50.264;11.918;2022-11-11T14:58:33;8.88;;;5.68;;
40945;SDS011;55635;50.264;11.918;2022-11-11T15:01:33;8.10;;;5.43;;
40945;SDS011;55635;50.264;11.918;2022-11-11T15:04:37;11.95;;;5.40;;
40945;SDS011;55635;50.264;11.918;2022-11-11T15:21:15;7.47;;;5.32;;
40945;SDS011;55635;50.264;11.918;2022-11-11T15:28:00;7.90;;;5.63;;
40945;SDS011;55635;50.264;11.918;2022-11-11T15:34:50;9.15;;;5.93;;
40945;SDS011;55635;50.264;11.918;2022-11-11T15:38:19;11.27;;;6.05;;
40945;SDS011;55635;50.264;11.918;2022-11-11T15:41:20;14.27;;;8.18;;
40945;SDS011;55635;50.264;11.918;2022-11-11T15:44:33;22.45;;;13.32;;
40945;SDS011;55635;50.264;11.918;2022-11-11T15:47:34;25.33;;;14.43;;
40945;SDS011;55635;50.264;11.918;2022-11-11T15:50:34;22.88;;;12.50;;
40945;SDS011;55635;50.264;11.918;2022-11-11T15:53:35;12.38;;;8.25;;
40945;SDS011;55635;50.264;11.918;2022-11-11T15:56:34;14.10;;;8.27;;
40945;SDS011;55635;50.264;11.918;2022-11-11T15:59:36;12.45;;;8.23;;
40945;SDS011;55635;50.264;11.918;2022-11-11T16:02:35;13.70;;;8.40;;
40945;SDS011;55635;50.264;11.918;2022-11-11T16:05:41;13.77;;;8.43;;
40945;SDS011;55635;50.264;11.918;2022-11-11T16:08:42;10.00;;;7.22;;
40945;SDS011;55635;50.264;11.918;2022-11-11T16:11:44;16.15;;;7.80;;
40945;SDS011;55635;50.264;11.918;2022-11-11T16:14:44;10.52;;;7.07;;
40945;SDS011;55635;50.264;11.918;2022-11-11T16:17:47;15.27;;;7.78;;
40945;SDS011;55635;50.264;11.918;2022-11-11T16:23:59;11.27;;;7.97;;
40945;SDS011;55635;50.264;11.918;2022-11-11T16:27:01;11.68;;;8.77;;
40945;SDS011;55635;50.264;11.918;2022-11-11T16:30:27;9.70;;;6.95;;
40945;SDS011;55635;50.264;11.918;2022-11-11T16:33:33;11.57;;;7.85;;
40945;SDS011;55635;50.264;11.918;2022-11-11T16:36:33;11.60;;;7.97;;
40945;SDS011;55635;50.264;11.918;2022-11-11T16:39:33;11.38;;;7.82;;
40945;SDS011;55635;50.264;11.918;2022-11-11T16:42:34;13.07;;;8.48;;
40945;SDS011;55635;50.264;11.918;2022-11-11T16:45:34;13.77;;;8.05;;
40945;SDS011;55635;50.264;11.918;2022-11-11T16:48:37;15.75;;;8.60;;
40945;SDS011;55635;50.264;11.918;2022-11-11T16:51:45;9.27;;;7.80;;
40945;SDS011;55635;50.264;11.918;2022-11-11T16:54:48;12.27;;;7.78;;
40945;SDS011;55635;50.264;11.918;2022-11-11T16:57:51;15.13;;;8.65;;
40945;SDS011;55635;50.264;11.918;2022-11-11T17:01:01;10.82;;;8.05;;
40945;SDS011;55635;50.264;11.918;2022-11-11T17:04:01;13.23;;;7.88;;
40945;SDS011;55635;50.264;11.918;2022-11-11T17:07:01;13.30;;;8.40;;
40945;SDS011;55635;50.264;11.918;2022-11-11T17:13:06;12.65;;;7.90;;
40945;SDS011;55635;50.264;11.918;2022-11-11T17:16:06;15.32;;;8.98;;
40945;SDS011;55635;50.264;11.918;2022-11-11T17:19:06;15.45;;;9.60;;
40945;SDS011;55635;50.264;11.918;2022-11-11T17:25:10;15.38;;;8.38;;
40945;SDS011;55635;50.264;11.918;2022-11-11T17:28:09;13.77;;;8.65;;
40945;SDS011;55635;50.264;11.918;2022-11-11T17:31:10;13.75;;;9.02;;
40945;SDS011;55635;50.264;11.918;2022-11-11T17:34:11;14.00;;;8.75;;
40945;SDS011;55635;50.264;11.918;2022-11-11T17:40:10;15.60;;;8.25;;
40945;SDS011;55635;50.264;11.918;2022-11-11T17:43:09;13.80;;;9.07;;
40945;SDS011;55635;50.264;11.918;2022-11-11T17:46:09;16.63;;;9.25;;
40945;SDS011;55635;50.264;11.918;2022-11-11T17:52:08;11.95;;;8.13;;
40945;SDS011;55635;50.264;11.918;2022-11-11T17:55:08;11.68;;;8.63;;
40945;SDS011;55635;50.264;11.918;2022-11-11T18:01:12;14.55;;;10.35;;
40945;SDS011;55635;50.264;11.918;2022-11-11T18:04:15;18.88;;;10.27;;
40945;SDS011;55635;50.264;11.918;2022-11-11T18:07:14;19.92;;;13.02;;
40945;SDS011;55635;50.264;11.918;2022-11-11T18:10:14;25.50;;;14.57;;
40945;SDS011;55635;50.264;11.918;2022-11-11T18:13:14;19.25;;;12.68;;
40945;SDS011;55635;50.264;11.918;2022-11-11T18:16:17;18.50;;;11.68;;
40945;SDS011;55635;50.264;11.918;2022-11-11T18:19:18;20.30;;;12.75;;
40945;SDS011;55635;50.264;11.918;2022-11-11T18:22:17;19.63;;;12.43;;
40945;SDS011;55635;50.264;11.918;2022-11-11T18:25:17;19.98;;;11.77;;
40945;SDS011;55635;50.264;11.918;2022-11-11T18:28:17;24.92;;;15.20;;
40945;SDS011;55635;50.264;11.918;2022-11-11T18:31:16;17.75;;;11.07;;
40945;SDS011;55635;50.264;11.918;2022-11-11T18:34:16;22.35;;;12.95;;
40945;SDS011;55635;50.264;11.918;2022-11-11T18:37:15;21.80;;;13.18;;
40945;SDS011;55635;50.264;11.918;2022-11-11T18:40:15;23.55;;;14.40;;
40945;SDS011;55635;50.264;11.918;2022-11-11T18:43:14;24.40;;;14.35;;
40945;SDS011;55635;50.264;11.918;2022-11-11T18:46:21;25.40;;;16.65;;
40945;SDS011;55635;50.264;11.918;2022-11-11T18:49:23;23.73;;;16.10;;
40945;SDS011;55635;50.264;11.918;2022-11-11T18:52:22;25.80;;;16.98;;
40945;SDS011;55635;50.264;11.918;2022-11-11T18:55:22;24.48;;;14.10;;
40945;SDS011;55635;50.264;11.918;2022-11-11T18:58:21;26.55;;;14.98;;
40945;SDS011;55635;50.264;11.918;2022-11-11T19:01:22;20.63;;;14.63;;
40945;SDS011;55635;50.264;11.918;2022-11-11T19:04:24;20.27;;;13.20;;
40945;SDS011;55635;50.264;11.918;2022-11-11T19:07:24;21.75;;;13.00;;
40945;SDS011;55635;50.264;11.918;2022-11-11T19:10:24;25.58;;;13.32;;
40945;SDS011;55635;50.264;11.918;2022-11-11T19:13:23;18.25;;;12.15;;
40945;SDS011;55635;50.264;11.918;2022-11-11T19:16:23;17.70;;;11.77;;
40945;SDS011;55635;50.264;11.918;2022-11-11T19:19:22;20.27;;;13.55;;
40945;SDS011;55635;50.264;11.918;2022-11-11T19:22:22;16.60;;;10.75;;
40945;SDS011;55635;50.264;11.918;2022-11-11T19:25:21;22.30;;;14.50;;
40945;SDS011;55635;50.264;11.918;2022-11-11T19:28:21;22.85;;;13.50;;
40945;SDS011;55635;50.264;11.918;2022-11-11T19:31:21;18.95;;;13.35;;
40945;SDS011;55635;50.264;11.918;2022-11-11T19:34:23;21.42;;;14.25;;
40945;SDS011;55635;50.264;11.918;2022-11-11T19:37:22;24.48;;;15.25;;
40945;SDS011;55635;50.264;11.918;2022-11-11T19:40:22;23.23;;;13.63;;
40945;SDS011;55635;50.264;11.918;2022-11-11T19:43:21;24.85;;;14.40;;
40945;SDS011;55635;50.264;11.918;2022-11-11T19:46:25;20.60;;;14.40;;
40945;SDS011;55635;50.264;11.918;2022-11-11T19:49:31;18.20;;;12.48;;
40945;SDS011;55635;50.264;11.918;2022-11-11T19:52:31;19.83;;;13.57;;
40945;SDS011;55635;50.264;11.918;2022-11-11T19:55:31;19.63;;;12.70;;
40945;SDS011;55635;50.264;11.918;2022-11-11T19:58:30;16.05;;;11.95;;
40945;SDS011;55635;50.264;11.918;2022-11-11T20:01:30;16.67;;;11.80;;
40945;SDS011;55635;50.264;11.918;2022-11-11T20:04:32;21.73;;;14.00;;
40945;SDS011;55635;50.264;11.918;2022-11-11T20:07:34;23.63;;;13.90;;
40945;SDS011;55635;50.264;11.918;2022-11-11T20:10:35;22.65;;;15.77;;
40945;SDS011;55635;50.264;11.918;2022-11-11T20:13:39;25.80;;;16.65;;
40945;SDS011;55635;50.264;11.918;2022-11-11T20:16:39;34.17;;;16.92;;
40945;SDS011;55635;50.264;11.918;2022-11-11T20:22:40;29.92;;;14.82;;
40945;SDS011;55635;50.264;11.918;2022-11-11T20:25:39;21.67;;;12.93;;
40945;SDS011;55635;50.264;11.918;2022-11-11T20:28:39;20.27;;;13.10;;
40945;SDS011;55635;50.264;11.918;2022-11-11T20:31:40;21.27;;;14.00;;
40945;SDS011;55635;50.264;11.918;2022-11-11T20:34:40;19.33;;;13.38;;
40945;SDS011;55635;50.264;11.918;2022-11-11T20:37:39;24.83;;;15.25;;
40945;SDS011;55635;50.264;11.918;2022-11-11T20:40:39;20.33;;;13.50;;
40945;SDS011;55635;50.264;11.918;2022-11-11T20:43:38;21.92;;;14.98;;
40945;SDS011;55635;50.264;11.918;2022-11-11T20:46:38;97.55;;;32.70;;
40945;SDS011;55635;50.264;11.918;2022-11-11T20:49:38;84.50;;;29.27;;
40945;SDS011;55635;50.264;11.918;2022-11-11T20:52:38;22.10;;;12.90;;
40945;SDS011;55635;50.264;11.918;2022-11-11T20:55:37;24.63;;;14.13;;
40945;SDS011;55635;50.264;11.918;2022-11-11T20:58:37;24.05;;;14.60;;
40945;SDS011;55635;50.264;11.918;2022-11-11T21:01:37;19.60;;;12.65;;
40945;SDS011;55635;50.264;11.918;2022-11-11T21:04:37;20.80;;;14.68;;
40945;SDS011;55635;50.264;11.918;2022-11-11T21:07:36;21.77;;;14.52;;
40945;SDS011;55635;50.264;11.918;2022-11-11T21:10:36;24.77;;;14.68;;
40945;SDS011;55635;50.264;11.918;2022-11-11T21:13:36;21.05;;;13.57;;
40945;SDS011;55635;50.264;11.918;2022-11-11T21:16:35;18.15;;;12.48;;